sensor_id;sensor_type;location;lat;lon;timestamp;pressure;altitude;pressure_sealevel;temperature;humidity
42169;BME280;27838;43.858;25.974;2023-01-08T00:01:10;101771.19;;;8.21;51.65
42169;BME280;27838;43.858;25.974;2023-01-08T00:03:37;101766.81;;;8.18;51.85
42169;BME280;27838;43.858;25.974;2023-01-08T00:06:07;101766.81;;;8.18;51.14
42169;BME280;27838;43.858;25.974;2023-01-08T00:08:33;101767.78;;;8.22;50.86
42169;BME280;27838;43.858;25.974;2023-01-08T00:11:00;101770.41;;;8.23;51.50
42169;BME280;27838;43.858;25.974;2023-01-08T00:13:27;101777.31;;;8.23;51.49
42169;BME280;27838;43.858;25.974;2023-01-08T00:15:54;101774.94;;;8.30;51.03
42169;BME280;27838;43.858;25.974;2023-01-08T00:18:21;101768.91;;;8.33;50.86
42169;BME280;27838;43.858;25.974;2023-01-08T00:20:48;101772.38;;;8.32;50.66
42169;BME280;27838;43.858;25.974;2023-01-08T00:23:16;101765.41;;;8.31;50.16
42169;BME280;27838;43.858;25.974;2023-01-08T00:25:44;101769.72;;;8.30;49.85
42169;BME280;27838;43.858;25.974;2023-01-08T00:28:10;101770.47;;;8.26;49.73
42169;BME280;27838;43.858;25.974;2023-01-08T00:30:39;101775.56;;;8.22;50.31
42169;BME280;27838;43.858;25.974;2023-01-08T00:33:06;101767.59;;;8.16;50.12
42169;BME280;27838;43.858;25.974;2023-01-08T00:35:32;101751.53;;;7.97;50.45
42169;BME280;27838;43.858;25.974;2023-01-08T00:37:59;101765.34;;;7.96;50.80
42169;BME280;27838;43.858;25.974;2023-01-08T00:40:25;101767.03;;;7.94;50.60
42169;BME280;27838;43.858;25.974;2023-01-08T00:42:52;101767.66;;;7.85;51.02
42169;BME280;27838;43.858;25.974;2023-01-08T00:45:18;101748.19;;;7.69;51.15
42169;BME280;27838;43.858;25.974;2023-01-08T00:47:45;101756.63;;;7.62;51.96
42169;BME280;27838;43.858;25.974;2023-01-08T00:50:11;101759.75;;;7.50;52.08
42169;BME280;27838;43.858;25.974;2023-01-08T00:52:38;101766.47;;;7.44;53.07
42169;BME280;27838;43.858;25.974;2023-01-08T00:55:05;101756.00;;;7.41;52.10
42169;BME280;27838;43.858;25.974;2023-01-08T00:57:36;101764.53;;;7.36;53.12
42169;BME280;27838;43.858;25.974;2023-01-08T01:00:06;101760.97;;;7.33;53.06
42169;BME280;27838;43.858;25.974;2023-01-08T01:02:35;101765.28;;;7.32;53.52
42169;BME280;27838;43.858;25.974;2023-01-08T01:05:02;101759.13;;;7.30;53.07
42169;BME280;27838;43.858;25.974;2023-01-08T01:07:29;101759.13;;;7.29;53.10
42169;BME280;27838;43.858;25.974;2023-01-08T01:09:56;101753.03;;;7.28;53.45
42169;BME280;27838;43.858;25.974;2023-01-08T01:12:22;101754.75;;;7.28;53.34
42169;BME280;27838;43.858;25.974;2023-01-08T01:14:49;101757.25;;;7.25;53.96
42169;BME280;27838;43.858;25.974;2023-01-08T01:17:15;101761.78;;;7.32;53.45
42169;BME280;27838;43.858;25.974;2023-01-08T01:19:42;101757.44;;;7.31;53.48
42169;BME280;27838;43.858;25.974;2023-01-08T01:22:09;101755.91;;;7.37;53.89
42169;BME280;27838;43.858;25.974;2023-01-08T01:24:35;101753.34;;;7.39;53.38
42169;BME280;27838;43.858;25.974;2023-01-08T01:27:02;101756.03;;;7.42;52.68
42169;BME280;27838;43.858;25.974;2023-01-08T01:29:29;101750.69;;;7.36;53.54
42169;BME280;27838;43.858;25.974;2023-01-08T01:31:55;101745.31;;;7.30;53.13
42169;BME280;27838;43.858;25.974;2023-01-08T01:34:22;101742.50;;;7.22;52.75
42169;BME280;27838;43.858;25.974;2023-01-08T01:36:48;101744.16;;;7.20;52.74
42169;BME280;27838;43.858;25.974;2023-01-08T01:39:15;101749.34;;;7.20;53.44
42169;BME280;27838;43.858;25.974;2023-01-08T01:41:43;101736.09;;;7.11;53.01
42169;BME280;27838;43.858;25.974;2023-01-08T01:44:42;101743.97;;;7.14;53.83
42169;BME280;27838;43.858;25.974;2023-01-08T01:50:00;101745.44;;;7.06;54.32
42169;BME280;27838;43.858;25.974;2023-01-08T01:52:29;101744.56;;;7.05;54.84
42169;BME280;27838;43.858;25.974;2023-01-08T01:54:59;101740.19;;;7.03;55.18
42169;BME280;27838;43.858;25.974;2023-01-08T01:57:28;101740.25;;;7.06;55.37
42169;BME280;27838;43.858;25.974;2023-01-08T01:59:57;101742.13;;;7.10;55.37
42169;BME280;27838;43.858;25.974;2023-01-08T02:02:24;101742.19;;;7.11;54.88
42169;BME280;27838;43.858;25.974;2023-01-08T02:04:51;101736.72;;;7.04;54.96
42169;BME280;27838;43.858;25.974;2023-01-08T02:10:10;101736.47;;;6.94;55.09
42169;BME280;27838;43.858;25.974;2023-01-08T02:12:50;101737.88;;;6.85;55.47
42169;BME280;27838;43.858;25.974;2023-01-08T02:15:48;101734.22;;;6.78;55.27
42169;BME280;27838;43.858;25.974;2023-01-08T02:18:19;101727.16;;;6.74;55.04
42169;BME280;27838;43.858;25.974;2023-01-08T02:23:32;101726.00;;;6.64;55.72
42169;BME280;27838;43.858;25.974;2023-01-08T02:28:29;101724.94;;;6.57;55.69
42169;BME280;27838;43.858;25.974;2023-01-08T02:30:58;101726.59;;;6.55;55.60
42169;BME280;27838;43.858;25.974;2023-01-08T02:33:29;101731.78;;;6.55;55.57
42169;BME280;27838;43.858;25.974;2023-01-08T02:36:23;101736.75;;;6.49;55.03
42169;BME280;27838;43.858;25.974;2023-01-08T02:44:55;101738.41;;;6.47;54.42
42169;BME280;27838;43.858;25.974;2023-01-08T02:47:28;101725.00;;;6.33;54.64
42169;BME280;27838;43.858;25.974;2023-01-08T02:53:22;101731.94;;;6.34;54.75
42169;BME280;27838;43.858;25.974;2023-01-08T02:56:14;101733.88;;;6.40;54.46
42169;BME280;27838;43.858;25.974;2023-01-08T02:58:43;101743.38;;;6.41;54.30
42169;BME280;27838;43.858;25.974;2023-01-08T03:01:13;101732.03;;;6.37;54.07
42169;BME280;27838;43.858;25.974;2023-01-08T03:03:43;101730.06;;;6.30;54.64
42169;BME280;27838;43.858;25.974;2023-01-08T03:06:13;101728.97;;;6.23;53.72
42169;BME280;27838;43.858;25.974;2023-01-08T03:08:43;101729.81;;;6.22;53.45
42169;BME280;27838;43.858;25.974;2023-01-08T03:11:14;101741.78;;;6.19;54.29
42169;BME280;27838;43.858;25.974;2023-01-08T03:13:53;101739.03;;;6.14;53.85
42169;BME280;27838;43.858;25.974;2023-01-08T03:16:26;101749.22;;;6.10;53.44
42169;BME280;27838;43.858;25.974;2023-01-08T03:21:36;101740.97;;;5.96;53.39
42169;BME280;27838;43.858;25.974;2023-01-08T03:24:04;101746.09;;;5.94;53.83
42169;BME280;27838;43.858;25.974;2023-01-08T03:26:32;101744.38;;;5.95;53.67
42169;BME280;27838;43.858;25.974;2023-01-08T03:28:59;101742.66;;;5.95;53.17
42169;BME280;27838;43.858;25.974;2023-01-08T03:31:27;101740.91;;;5.94;53.65
42169;BME280;27838;43.858;25.974;2023-01-08T03:33:55;101736.47;;;5.92;53.31
42169;BME280;27838;43.858;25.974;2023-01-08T03:36:25;101748.63;;;5.93;53.47
42169;BME280;27838;43.858;25.974;2023-01-08T03:39:04;101745.19;;;5.94;53.31
42169;BME280;27838;43.858;25.974;2023-01-08T03:41:34;101748.72;;;5.96;53.20
42169;BME280;27838;43.858;25.974;2023-01-08T03:44:02;101741.03;;;5.97;53.35
42169;BME280;27838;43.858;25.974;2023-01-08T03:46:32;101740.28;;;6.00;53.53
42169;BME280;27838;43.858;25.974;2023-01-08T03:49:00;101734.25;;;6.01;52.65
42169;BME280;27838;43.858;25.974;2023-01-08T03:51:27;101732.75;;;6.08;52.62
42169;BME280;27838;43.858;25.974;2023-01-08T03:53:57;101724.19;;;6.09;52.68
42169;BME280;27838;43.858;25.974;2023-01-08T03:56:24;101724.00;;;6.04;52.89
42169;BME280;27838;43.858;25.974;2023-01-08T03:58:51;101731.66;;;6.01;52.80
42169;BME280;27838;43.858;25.974;2023-01-08T04:01:17;101733.03;;;5.91;53.04
42169;BME280;27838;43.858;25.974;2023-01-08T04:03:44;101729.22;;;5.81;53.49
42169;BME280;27838;43.858;25.974;2023-01-08T04:06:10;101722.19;;;5.77;53.93
42169;BME280;27838;43.858;25.974;2023-01-08T04:08:37;101725.59;;;5.76;53.23
42169;BME280;27838;43.858;25.974;2023-01-08T04:11:03;101733.41;;;5.78;53.62
42169;BME280;27838;43.858;25.974;2023-01-08T04:13:30;101734.41;;;5.81;54.19
42169;BME280;27838;43.858;25.974;2023-01-08T04:15:56;101726.75;;;5.84;53.64
42169;BME280;27838;43.858;25.974;2023-01-08T04:18:23;101733.09;;;5.93;53.99
42169;BME280;27838;43.858;25.974;2023-01-08T04:20:49;101733.31;;;5.99;54.25
42169;BME280;27838;43.858;25.974;2023-01-08T04:23:16;101724.94;;;6.06;54.25
42169;BME280;27838;43.858;25.974;2023-01-08T04:25:42;101730.34;;;6.12;53.59
42169;BME280;27838;43.858;25.974;2023-01-08T04:28:09;101722.75;;;6.17;53.36
42169;BME280;27838;43.858;25.974;2023-01-08T04:30:36;101720.16;;;6.18;53.54
42169;BME280;27838;43.858;25.974;2023-01-08T04:33:02;101717.69;;;6.21;53.69
42169;BME280;27838;43.858;25.974;2023-01-08T04:35:29;101715.00;;;6.18;53.44
42169;BME280;27838;43.858;25.974;2023-01-08T04:37:55;101707.97;;;6.14;53.29
42169;BME280;27838;43.858;25.974;2023-01-08T04:40:22;101712.97;;;6.10;53.39
42169;BME280;27838;43.858;25.974;2023-01-08T04:42:48;101711.22;;;6.09;53.69
42169;BME280;27838;43.858;25.974;2023-01-08T04:45:16;101705.19;;;6.08;53.63
42169;BME280;27838;43.858;25.974;2023-01-08T04:47:43;101709.50;;;6.09;52.79
42169;BME280;27838;43.858;25.974;2023-01-08T04:50:10;101702.69;;;6.11;53.20
42169;BME280;27838;43.858;25.974;2023-01-08T04:52:36;101713.97;;;6.13;52.42
42169;BME280;27838;43.858;25.974;2023-01-08T04:55:03;101707.91;;;6.13;52.84
42169;BME280;27838;43.858;25.974;2023-01-08T04:57:30;101712.31;;;6.15;52.95
42169;BME280;27838;43.858;25.974;2023-01-08T04:59:56;101706.13;;;6.10;52.94
42169;BME280;27838;43.858;25.974;2023-01-08T05:02:23;101717.44;;;6.14;52.89
42169;BME280;27838;43.858;25.974;2023-01-08T05:04:49;101723.31;;;6.08;52.73
42169;BME280;27838;43.858;25.974;2023-01-08T05:07:16;101721.53;;;6.07;53.78
42169;BME280;27838;43.858;25.974;2023-01-08T05:09:42;101717.09;;;6.04;53.96
42169;BME280;27838;43.858;25.974;2023-01-08T05:12:09;101725.03;;;6.09;54.02
42169;BME280;27838;43.858;25.974;2023-01-08T05:14:35;101728.44;;;6.07;54.83
42169;BME280;27838;43.858;25.974;2023-01-08T05:17:02;101726.72;;;6.07;54.96
42169;BME280;27838;43.858;25.974;2023-01-08T05:19:29;101735.41;;;6.09;54.81
42169;BME280;27838;43.858;25.974;2023-01-08T05:21:55;101744.09;;;6.11;55.30
42169;BME280;27838;43.858;25.974;2023-01-08T05:24:22;101731.88;;;6.07;54.64
42169;BME280;27838;43.858;25.974;2023-01-08T05:26:49;101745.00;;;6.12;54.70
42169;BME280;27838;43.858;25.974;2023-01-08T05:29:15;101749.22;;;6.10;54.84
42169;BME280;27838;43.858;25.974;2023-01-08T05:31:42;101745.00;;;6.12;55.07
42169;BME280;27838;43.858;25.974;2023-01-08T05:34:08;101741.31;;;6.05;55.41
42169;BME280;27838;43.858;25.974;2023-01-08T05:36:35;101740.91;;;5.94;55.57
42169;BME280;27838;43.858;25.974;2023-01-08T05:39:02;101744.97;;;5.88;55.82
42169;BME280;27838;43.858;25.974;2023-01-08T05:41:28;101745.47;;;5.77;56.63
42169;BME280;27838;43.858;25.974;2023-01-08T05:43:55;101752.44;;;5.80;56.50
42169;BME280;27838;43.858;25.974;2023-01-08T05:46:22;101753.13;;;5.74;57.50
42169;BME280;27838;43.858;25.974;2023-01-08T05:48:48;101748.66;;;5.70;57.87
42169;BME280;27838;43.858;25.974;2023-01-08T05:51:15;101746.19;;;5.73;58.28
42169;BME280;27838;43.858;25.974;2023-01-08T05:53:41;101747.94;;;5.74;57.98
42169;BME280;27838;43.858;25.974;2023-01-08T05:56:09;101739.38;;;5.75;58.79
42169;BME280;27838;43.858;25.974;2023-01-08T05:58:37;101744.44;;;5.72;58.84
42169;BME280;27838;43.858;25.974;2023-01-08T06:01:09;101741.59;;;5.66;58.88
42169;BME280;27838;43.858;25.974;2023-01-08T06:03:37;101744.91;;;5.62;58.69
42169;BME280;27838;43.858;25.974;2023-01-08T06:06:05;101750.97;;;5.62;58.14
42169;BME280;27838;43.858;25.974;2023-01-08T06:08:32;101755.13;;;5.59;58.45
42169;BME280;27838;43.858;25.974;2023-01-08T06:11:00;101763.75;;;5.58;58.45
42169;BME280;27838;43.858;25.974;2023-01-08T06:13:27;101770.06;;;5.43;58.91
42169;BME280;27838;43.858;25.974;2023-01-08T06:15:54;101769.03;;;5.38;58.99
42169;BME280;27838;43.858;25.974;2023-01-08T06:18:20;101773.38;;;5.39;59.31
42169;BME280;27838;43.858;25.974;2023-01-08T06:20:47;101773.44;;;5.41;59.67
42169;BME280;27838;43.858;25.974;2023-01-08T06:23:13;101766.56;;;5.41;58.94
42169;BME280;27838;43.858;25.974;2023-01-08T06:25:40;101772.72;;;5.45;59.19
42169;BME280;27838;43.858;25.974;2023-01-08T06:28:07;101773.25;;;5.36;59.44
42169;BME280;27838;43.858;25.974;2023-01-08T06:30:33;101772.19;;;5.31;58.85
42169;BME280;27838;43.858;25.974;2023-01-08T06:33:00;101758.00;;;5.20;59.14
42169;BME280;27838;43.858;25.974;2023-01-08T06:35:27;101770.91;;;5.20;58.71
42169;BME280;27838;43.858;25.974;2023-01-08T06:37:54;101776.88;;;5.17;58.57
42169;BME280;27838;43.858;25.974;2023-01-08T06:40:22;101774.28;;;5.17;58.36
42169;BME280;27838;43.858;25.974;2023-01-08T06:42:48;101776.91;;;5.19;58.52
42169;BME280;27838;43.858;25.974;2023-01-08T06:45:15;101775.16;;;5.18;58.46
42169;BME280;27838;43.858;25.974;2023-01-08T06:47:42;101783.91;;;5.21;59.09
42169;BME280;27838;43.858;25.974;2023-01-08T06:50:08;101787.13;;;5.16;58.22
42169;BME280;27838;43.858;25.974;2023-01-08T06:52:35;101788.75;;;5.14;58.27
42169;BME280;27838;43.858;25.974;2023-01-08T06:55:02;101790.66;;;5.18;58.38
42169;BME280;27838;43.858;25.974;2023-01-08T06:57:30;101792.38;;;5.17;58.63
42169;BME280;27838;43.858;25.974;2023-01-08T06:59:57;101796.34;;;5.09;57.82
42169;BME280;27838;43.858;25.974;2023-01-08T07:02:23;101802.38;;;5.09;58.36
42169;BME280;27838;43.858;25.974;2023-01-08T07:04:50;101791.81;;;5.03;58.32
42169;BME280;27838;43.858;25.974;2023-01-08T07:07:16;101795.22;;;5.02;58.47
42169;BME280;27838;43.858;25.974;2023-01-08T07:09:43;101799.00;;;5.10;57.61
42169;BME280;27838;43.858;25.974;2023-01-08T07:12:12;101791.47;;;5.17;57.92
42169;BME280;27838;43.858;25.974;2023-01-08T07:14:39;101795.06;;;5.20;58.55
42169;BME280;27838;43.858;25.974;2023-01-08T07:17:06;101795.25;;;5.25;58.11
42169;BME280;27838;43.858;25.974;2023-01-08T07:19:33;101794.47;;;5.27;58.34
42169;BME280;27838;43.858;25.974;2023-01-08T07:21:59;101784.09;;;5.26;58.85
42169;BME280;27838;43.858;25.974;2023-01-08T07:24:26;101795.38;;;5.28;58.08
42169;BME280;27838;43.858;25.974;2023-01-08T07:26:52;101795.47;;;5.31;58.40
42169;BME280;27838;43.858;25.974;2023-01-08T07:29:19;101793.84;;;5.33;58.53
42169;BME280;27838;43.858;25.974;2023-01-08T07:31:45;101800.06;;;5.38;58.38
42169;BME280;27838;43.858;25.974;2023-01-08T07:34:12;101793.34;;;5.43;58.10
42169;BME280;27838;43.858;25.974;2023-01-08T07:36:38;101790.00;;;5.46;59.02
42169;BME280;27838;43.858;25.974;2023-01-08T07:39:05;101795.72;;;5.60;58.14
42169;BME280;27838;43.858;25.974;2023-01-08T07:41:31;101791.41;;;5.60;58.33
42169;BME280;27838;43.858;25.974;2023-01-08T07:43:58;101801.94;;;5.65;58.55
42169;BME280;27838;43.858;25.974;2023-01-08T07:46:24;101794.56;;;5.76;58.43
42169;BME280;27838;43.858;25.974;2023-01-08T07:48:51;101794.75;;;5.80;58.31
42169;BME280;27838;43.858;25.974;2023-01-08T07:51:17;101805.38;;;5.88;58.08
42169;BME280;27838;43.858;25.974;2023-01-08T07:53:44;101798.59;;;5.92;57.79
42169;BME280;27838;43.858;25.974;2023-01-08T07:56:10;101803.06;;;5.96;57.35
42169;BME280;27838;43.858;25.974;2023-01-08T07:58:37;101801.53;;;6.01;57.57
42169;BME280;27838;43.858;25.974;2023-01-08T08:01:07;101796.28;;;5.98;57.76
42169;BME280;27838;43.858;25.974;2023-01-08T08:03:36;101805.16;;;6.06;57.15
42169;BME280;27838;43.858;25.974;2023-01-08T08:06:03;101805.47;;;6.14;57.09
42169;BME280;27838;43.858;25.974;2023-01-08T08:08:29;101802.81;;;6.12;57.95
42169;BME280;27838;43.858;25.974;2023-01-08T08:10:56;101808.38;;;6.23;57.68
42169;BME280;27838;43.858;25.974;2023-01-08T08:13:22;101807.00;;;6.33;57.86
42169;BME280;27838;43.858;25.974;2023-01-08T08:15:49;101809.06;;;6.43;58.17
42169;BME280;27838;43.858;25.974;2023-01-08T08:18:15;101811.22;;;6.56;57.87
42169;BME280;27838;43.858;25.974;2023-01-08T08:20:42;101796.84;;;6.65;56.94
42169;BME280;27838;43.858;25.974;2023-01-08T08:23:13;101795.56;;;6.79;57.54
42169;BME280;27838;43.858;25.974;2023-01-08T08:25:41;101801.03;;;6.88;57.27
42169;BME280;27838;43.858;25.974;2023-01-08T08:28:08;101797.97;;;7.00;57.48
42169;BME280;27838;43.858;25.974;2023-01-08T08:30:36;101803.38;;;7.06;57.78
42169;BME280;27838;43.858;25.974;2023-01-08T08:33:05;101795.91;;;7.17;57.15
42169;BME280;27838;43.858;25.974;2023-01-08T08:35:32;101798.75;;;7.25;57.15
42169;BME280;27838;43.858;25.974;2023-01-08T08:37:59;101794.47;;;7.25;57.32
42169;BME280;27838;43.858;25.974;2023-01-08T08:40:26;101789.44;;;7.31;57.15
42169;BME280;27838;43.858;25.974;2023-01-08T08:43:00;101793.09;;;7.38;57.40
42169;BME280;27838;43.858;25.974;2023-01-08T08:45:27;101796.88;;;7.49;57.72
42169;BME280;27838;43.858;25.974;2023-01-08T08:47:54;101790.22;;;7.57;57.60
42169;BME280;27838;43.858;25.974;2023-01-08T08:50:21;101796.00;;;7.78;57.48
42169;BME280;27838;43.858;25.974;2023-01-08T08:52:48;101787.59;;;7.88;56.92
42169;BME280;27838;43.858;25.974;2023-01-08T08:55:14;101786.13;;;7.96;56.46
42169;BME280;27838;43.858;25.974;2023-01-08T08:57:42;101776.69;;;8.00;56.07
42169;BME280;27838;43.858;25.974;2023-01-08T09:00:09;101784.00;;;8.13;55.82
42169;BME280;27838;43.858;25.974;2023-01-08T09:02:36;101787.91;;;8.30;55.90
42169;BME280;27838;43.858;25.974;2023-01-08T09:05:02;101790.91;;;8.44;55.50
42169;BME280;27838;43.858;25.974;2023-01-08T09:07:29;101782.72;;;8.64;55.71
42169;BME280;27838;43.858;25.974;2023-01-08T09:09:56;101782.38;;;8.85;55.95
42169;BME280;27838;43.858;25.974;2023-01-08T09:12:22;101767.16;;;9.00;54.52
42169;BME280;27838;43.858;25.974;2023-01-08T09:14:49;101760.66;;;9.19;54.44
42169;BME280;27838;43.858;25.974;2023-01-08T09:17:16;101762.88;;;9.42;54.45
42169;BME280;27838;43.858;25.974;2023-01-08T09:19:43;101760.88;;;9.73;54.01
42169;BME280;27838;43.858;25.974;2023-01-08T09:22:09;101748.19;;;9.90;53.73
42169;BME280;27838;43.858;25.974;2023-01-08T09:24:36;101748.59;;;10.11;51.89
42169;BME280;27838;43.858;25.974;2023-01-08T09:27:03;101735.78;;;10.24;52.41
42169;BME280;27838;43.858;25.974;2023-01-08T09:29:29;101736.03;;;10.36;52.10
42169;BME280;27838;43.858;25.974;2023-01-08T09:31:56;101732.75;;;10.48;51.87
42169;BME280;27838;43.858;25.974;2023-01-08T09:34:24;101732.25;;;10.70;52.15
42169;BME280;27838;43.858;25.974;2023-01-08T09:36:51;101736.88;;;10.90;50.76
42169;BME280;27838;43.858;25.974;2023-01-08T09:39:17;101732.69;;;11.00;50.55
42169;BME280;27838;43.858;25.974;2023-01-08T09:41:45;101732.81;;;11.09;50.18
42169;BME280;27838;43.858;25.974;2023-01-08T09:44:25;101728.56;;;11.15;50.20
42169;BME280;27838;43.858;25.974;2023-01-08T09:46:54;101738.25;;;11.24;49.36
42169;BME280;27838;43.858;25.974;2023-01-08T09:49:24;101723.59;;;11.34;49.32
42169;BME280;27838;43.858;25.974;2023-01-08T09:51:53;101722.09;;;11.55;49.00
42169;BME280;27838;43.858;25.974;2023-01-08T09:54:22;101715.31;;;11.72;48.79
42169;BME280;27838;43.858;25.974;2023-01-08T09:56:51;101712.97;;;11.92;47.82
42169;BME280;27838;43.858;25.974;2023-01-08T09:59:18;101714.03;;;12.11;47.84
42169;BME280;27838;43.858;25.974;2023-01-08T10:01:45;101715.00;;;12.24;47.04
42169;BME280;27838;43.858;25.974;2023-01-08T10:04:19;101714.16;;;12.28;46.85
42169;BME280;27838;43.858;25.974;2023-01-08T10:06:51;101707.22;;;12.28;46.07
42169;BME280;27838;43.858;25.974;2023-01-08T10:09:26;101701.00;;;12.17;47.31
42169;BME280;27838;43.858;25.974;2023-01-08T10:11:56;101702.78;;;12.20;46.55
42169;BME280;27838;43.858;25.974;2023-01-08T10:14:37;101698.47;;;12.25;47.37
42169;BME280;27838;43.858;25.974;2023-01-08T10:17:24;101698.56;;;12.39;46.63
42169;BME280;27838;43.858;25.974;2023-01-08T10:19:52;101691.72;;;12.56;46.50
42169;BME280;27838;43.858;25.974;2023-01-08T10:22:22;101691.81;;;12.67;46.39
42169;BME280;27838;43.858;25.974;2023-01-08T10:24:49;101671.81;;;12.72;46.00
42169;BME280;27838;43.858;25.974;2023-01-08T10:27:19;101673.66;;;12.90;45.89
42169;BME280;27838;43.858;25.974;2023-01-08T10:29:49;101670.25;;;13.03;45.30
42169;BME280;27838;43.858;25.974;2023-01-08T10:32:26;101666.78;;;13.09;45.11
42169;BME280;27838;43.858;25.974;2023-01-08T10:34:57;101665.00;;;13.05;44.94
42169;BME280;27838;43.858;25.974;2023-01-08T10:37:40;101665.97;;;13.21;45.00
42169;BME280;27838;43.858;25.974;2023-01-08T10:40:26;101658.13;;;13.29;44.14
42169;BME280;27838;43.858;25.974;2023-01-08T10:42:56;101660.81;;;13.33;44.57
42169;BME280;27838;43.858;25.974;2023-01-08T10:45:31;101654.72;;;13.47;44.31
42169;BME280;27838;43.858;25.974;2023-01-08T10:48:00;101644.28;;;13.54;43.13
42169;BME280;27838;43.858;25.974;2023-01-08T10:50:31;101642.53;;;13.59;43.74
42169;BME280;27838;43.858;25.974;2023-01-08T10:53:17;101650.38;;;13.61;43.99
42169;BME280;27838;43.858;25.974;2023-01-08T10:55:56;101641.69;;;13.68;43.85
42169;BME280;27838;43.858;25.974;2023-01-08T10:58:23;101641.69;;;13.74;44.09
42169;BME280;27838;43.858;25.974;2023-01-08T11:00:50;101636.44;;;13.84;43.97
42169;BME280;27838;43.858;25.974;2023-01-08T11:03:29;101630.34;;;13.85;43.63
42169;BME280;27838;43.858;25.974;2023-01-08T11:05:57;101633.84;;;13.88;43.76
42169;BME280;27838;43.858;25.974;2023-01-08T11:08:24;101632.09;;;13.86;43.47
42169;BME280;27838;43.858;25.974;2023-01-08T11:10:58;101629.47;;;13.70;44.29
42169;BME280;27838;43.858;25.974;2023-01-08T11:13:26;101626.78;;;13.46;44.47
42169;BME280;27838;43.858;25.974;2023-01-08T11:16:07;101631.09;;;13.34;44.54
42169;BME280;27838;43.858;25.974;2023-01-08T11:18:47;101624.13;;;13.35;45.14
42169;BME280;27838;43.858;25.974;2023-01-08T11:21:19;101627.66;;;13.43;44.94
42169;BME280;27838;43.858;25.974;2023-01-08T11:24:21;101621.53;;;13.50;44.84
42169;BME280;27838;43.858;25.974;2023-01-08T11:27:11;101625.06;;;13.58;44.72
42169;BME280;27838;43.858;25.974;2023-01-08T11:29:46;101624.19;;;13.58;44.38
42169;BME280;27838;43.858;25.974;2023-01-08T11:37:35;101612.84;;;13.51;44.82
42169;BME280;27838;43.858;25.974;2023-01-08T11:40:09;101618.06;;;13.51;45.27
42169;BME280;27838;43.858;25.974;2023-01-08T11:42:59;101622.41;;;13.45;45.33
42169;BME280;27838;43.858;25.974;2023-01-08T11:59:18;101609.38;;;13.72;44.32
42169;BME280;27838;43.858;25.974;2023-01-08T12:02:03;101603.25;;;13.79;44.23
42169;BME280;27838;43.858;25.974;2023-01-08T12:04:50;101605.00;;;13.84;44.08
42169;BME280;27838;43.858;25.974;2023-01-08T12:07:42;101605.88;;;13.87;44.19
42169;BME280;27838;43.858;25.974;2023-01-08T12:16:58;101593.66;;;13.74;44.51
42169;BME280;27838;43.858;25.974;2023-01-08T12:22:14;101599.75;;;13.65;45.51
42169;BME280;27838;43.858;25.974;2023-01-08T12:24:56;101603.25;;;13.67;45.59
42169;BME280;27838;43.858;25.974;2023-01-08T12:34:11;101598.00;;;13.58;45.39
42169;BME280;27838;43.858;25.974;2023-01-08T12:36:45;101595.38;;;13.55;46.05
42169;BME280;27838;43.858;25.974;2023-01-08T12:39:31;101597.13;;;13.65;45.55
42169;BME280;27838;43.858;25.974;2023-01-08T12:42:13;101598.88;;;13.63;45.51
42169;BME280;27838;43.858;25.974;2023-01-08T12:44:44;101592.78;;;13.67;45.81
42169;BME280;27838;43.858;25.974;2023-01-08T12:47:15;101592.75;;;13.64;46.00
42169;BME280;27838;43.858;25.974;2023-01-08T12:50:04;101586.63;;;13.57;46.15
42169;BME280;27838;43.858;25.974;2023-01-08T12:53:01;101585.75;;;13.54;45.99
42169;BME280;27838;43.858;25.974;2023-01-08T13:01:15;101596.19;;;13.32;46.86
42169;BME280;27838;43.858;25.974;2023-01-08T13:03:47;101583.06;;;13.28;46.46
42169;BME280;27838;43.858;25.974;2023-01-08T13:06:16;101591.84;;;13.36;47.23
42169;BME280;27838;43.858;25.974;2023-01-08T13:08:47;101589.25;;;13.47;46.36
42169;BME280;27838;43.858;25.974;2023-01-08T13:11:27;101577.91;;;13.48;46.28
42169;BME280;27838;43.858;25.974;2023-01-08T13:14:05;101579.66;;;13.53;45.94
42169;BME280;27838;43.858;25.974;2023-01-08T13:16:37;101585.78;;;13.63;46.15
42169;BME280;27838;43.858;25.974;2023-01-08T13:19:05;101581.41;;;13.54;46.29
42169;BME280;27838;43.858;25.974;2023-01-08T13:21:42;101578.78;;;13.51;46.17
42169;BME280;27838;43.858;25.974;2023-01-08T13:26:56;101577.94;;;13.65;46.26
42169;BME280;27838;43.858;25.974;2023-01-08T13:31:58;101570.06;;;13.63;45.83
42169;BME280;27838;43.858;25.974;2023-01-08T13:34:37;101576.16;;;13.73;45.58
42169;BME280;27838;43.858;25.974;2023-01-08T13:37:06;101579.69;;;13.73;45.67
42169;BME280;27838;43.858;25.974;2023-01-08T13:39:37;101588.41;;;13.74;45.80
42169;BME280;27838;43.858;25.974;2023-01-08T13:44:40;101580.56;;;13.65;46.31
42169;BME280;27838;43.858;25.974;2023-01-08T13:47:40;101590.13;;;13.61;46.30
42169;BME280;27838;43.858;25.974;2023-01-08T13:50:17;101584.91;;;13.63;46.44
42169;BME280;27838;43.858;25.974;2023-01-08T13:53:02;101587.50;;;13.61;46.64
42169;BME280;27838;43.858;25.974;2023-01-08T13:55:32;101583.16;;;13.60;46.77
42169;BME280;27838;43.858;25.974;2023-01-08T13:58:03;101584.03;;;13.64;46.32
42169;BME280;27838;43.858;25.974;2023-01-08T14:05:47;101577.06;;;13.58;46.92
42169;BME280;27838;43.858;25.974;2023-01-08T14:08:25;101570.03;;;13.54;46.62
42169;BME280;27838;43.858;25.974;2023-01-08T14:10:52;101568.31;;;13.53;47.11
42169;BME280;27838;43.858;25.974;2023-01-08T14:13:26;101570.91;;;13.50;47.00
42169;BME280;27838;43.858;25.974;2023-01-08T14:15:58;101571.78;;;13.50;47.08
42169;BME280;27838;43.858;25.974;2023-01-08T14:18:26;101572.66;;;13.48;47.31